Apex, Nunavut

10:05 AM EDT on September 21, 2019 (GMT -0400)
Iqaluit | | Change Station

Elev 112 ft 63.75 °N, 68.53 °W | Updated 5 minutes ago

Mostly Cloudy
Mostly Cloudy
41 °F
Feels Like 30 °F
N
30
Wind Variable Wind from NW
Gusts 40 mph

Today
High -- | Low -- °F
--% Chance of Precip.
Yesterday
High -- | Low -- °F
Precip. -- in
Pressure 29.56 in
Visibility 30.0 miles
Clouds Mostly Cloudy 2200 ft
Mostly Cloudy 4800 ft
Windchill 30 °F
Dew Point 32 °F
Humidity 70%
Rainfall 0.00 in
Snow Depth Not available.
6:13 AM 6:38 PM
Waning Gibbous, 56% visible
METAR CYFB 211400Z 31026G35KT 30SM BKN022 BKN048 05/00 A2954 RMK SC5SC1 SLP008
Pressure 29.56 in
Visibility 30.0 miles
Clouds Mostly Cloudy 2200 ft
Mostly Cloudy 4800 ft
Windchill 30 °F
Dew Point 32 °F
Humidity 70%
Rainfall 0.00 in
Snow Depth Not available.
6:13 AM 6:38 PM
Waning Gibbous, 56% visible
METAR CYFB 211400Z 31026G35KT 30SM BKN022 BKN048 05/00 A2954 RMK SC5SC1 SLP008

Get Severe Weather Alerts

Thanks for signing up!

Be on the lookout for a verification email in your inbox.

You'll start receiving the daily forecast at 6 AM.

×

10-Day Weather Forecast

No radar image for this location.
×

Almanac

Astronomy

Sep. 21, 2019 Rise Set
Actual Time
Civil Twilight
Nautical Twilight
Astronomical Twilight
Moon
Length of Visible Light
Length of Day
Tomorrow will be .
, % of the Moon is Illuminated

Today's Extremes

Country Highs Country Lows

Community

WunderPhotos

Category 6

Welcome to Category 6. This is the collective home for Weather Underground's featured writeups by Dr. Jeff Masters (right), Bob Henson (left), Chris Burt, and other regular contributors.

Nearby

Air Quality

  Air Quality AQ Index Pollutant
Not available.

Snow Depth

Station Depth Elevation

Earthquake Activity

City Distance Mag. Time & Date
Minimum magnitude displayed is 2.5.

Coastal Water Temperatures

Place Temperature

Stations

Nearby Weather Stations

Station Location Temp. Windchill Dew Point Humidity Wind Precip. Elev Updated Type
                   

Watches & Warnings

There are currently no watches in effect.